AirNav   Duncan Aviation - Near you to keep you flying
 
 1515 users online  

SN31 William Newton Memorial Hospital Heliport
Winfield, Kansas, USA

GOING TO WINFIELD?


FAA INFORMATION EFFECTIVE 15 JULY 2021

Location

FAA Identifier: SN31
Lat/Long: 37-14-46.8700N 096-58-57.0200W
37-14.781167N 096-58.950333W
37.2463528,-96.9825056
(estimated)
Elevation: 1156 ft. / 352 m (estimated)
Variation: 07E (1985)
Time zone: UTC -5 (UTC -6 during Standard Time)
Zip code: 67156

Heliport Operations

Heliport use: Private use, MEDICAL
Activation date: 11/1988
Control tower: no
ARTCC: KANSAS CITY CENTER
FSS: WICHITA FLIGHT SERVICE STATION
Attendance: UNATNDD
Segmented circle: no

Heliport Communications

WX ASOS at WLD (5 nm SW): 118.025 (620-221-9121)
WX AWOS-3 at EGT (20 nm W): 118.875 (620-326-2470)

Nearby radio navigation aids

VOR radial/distance  VOR name  Freq  Var
PERr010/31.2PIONEER VORTAC113.2006E

Heliport Services

Runway Information

Helipad H1

Dimensions: 40 x 40 ft. / 12 x 12 m
Surface: concrete
Latitude: 37-14.781167N
Longitude: 096-58.950333W
Elevation: 1156.0 ft.
Traffic pattern: leftleft

Heliport Ownership and Management from official FAA records

Ownership: Privately-owned
Owner: WILLIAM NEWTON MEMORIAL HOSP
1300 EAST 5TH
WINFIELD, KS 67156
Phone (620) 221-2300
Manager: BEN QUINTON
1300 EAST 5TH AVE
WINFIELD, KS 67156
Phone (620) 221-2300

Additional Remarks

FOR CD CTC KANSAS CITY ARTCC AT 913-254-8508.

Instrument Procedures

There are no published instrument procedures at SN31.

Some nearby airports with instrument procedures:

KWLD - Strother Field Airport (5 nm SW)
KEGT - Wellington Municipal Airport (20 nm W)
3AU - Augusta Municipal Airport (26 nm N)
KIAB - Mc Connell Air Force Base (26 nm NW)
KCEA - Cessna Aircraft Field Airport (27 nm NW)
 
Loc | Ops | Rwys | IFR | FBO | Links
Com | Nav | Svcs | Stats | Notes
Area around SN31 (William Newton Memorial Hospital Heliport)
 
Road maps at: MapQuest Bing Google
 
Aerial photo
No photo
 
Sectional chart

 
Airport distance calculator
Flying to William Newton Memorial Hospital Heliport? Find the distance to fly.

From to SN31

Sunrise and sunset
Times for 05-Aug-2021
 Local
(UTC-5)
 Zulu
(UTC)
Morning civil twilight06:0811:08
Sunrise06:3711:37
Sunset20:3101:31
Evening civil twilight20:5901:59

Current date and time
Zulu (UTC)  05-Aug-2021 14:32:23
Local (UTC-5)  05-Aug-2021 09:32:23
 
METAR
KWLD 
5nm SW 
051354Z AUTO 18005KT 8SM FEW100 23/19 A3011 RMK AO2 SLP186 T02330194
TAF
KIAB 
26nm NW 
051000Z 0510/0616 18012KT 9999 SCT080 BKN180 QNH3004INS BECMG 0520/0521 17010KT 9999 FEW120 QNH2995INS BECMG 0614/0615 21015KT 9999 SKC QNH2996INS TX31/0520Z TN19/0610Z
KPNC 
31nm S 
051120Z 0512/0612 14004KT P6SM BKN120 FM051400 17007KT P6SM SCT040 BKN080 FM060100 14007KT P6SM SCT250
KICT 
32nm NW 
051126Z 0512/0612 18005KT P6SM SCT030 BKN100 FM052000 18010KT P6SM FEW060 SCT200 FM060400 16009KT P6SM FEW250
NOTAMs
Click for the latest NOTAMs
NOTAMs are issued by the DoD/FAA and will open in a separate window not controlled by AirNav.

 

 
 

Would you like to see your business listed on this page?

 If your business provides an interesting product or service to pilots, flight crews, aircraft, or users of the William Newton Memorial Hospital Heliport, you should consider listing it here.  To start the listing process, click on the button below
 
Add a business
 

Other Pages about William Newton Memorial Hospital Heliport

Update a link
 
Copyright © AirNav, LLC. All rights reserved. Privacy Policy  Contact